Time;durP1;ratioP1;P1;durP2;ratioP2;P2;SDS_P1;SDS_P2;PMS_P1;PMS_P2;Temp;Humidity;BMP_temperature;BMP_pressure;BME280_temperature;BME280_humidity;BME280_pressure;Samples;Min_cycle;Max_cycle;Signal;HPM_P1;HPM_P2
2021/12/10 00:01:17;;;;;;;;;1.00;1.00;;;;;6.02;84.09;98871.88;4985850;28;46278;-61
2021/12/10 00:03:50;;;;;;;;;0.50;0.50;;;;;6.03;84.09;98857.72;4992772;28;45374;-59
2021/12/10 00:06:23;;;;;;;;;1.25;1.00;;;;;5.93;84.79;98828.44;4983980;28;45572;-61
2021/12/10 00:08:53;;;;;;;;;1.00;1.00;;;;;5.99;83.79;98822.78;4992104;28;45667;-62
2021/12/10 00:11:28;;;;;;;;;1.00;1.00;;;;;5.96;84.65;98811.56;4994700;28;46465;-61
2021/12/10 00:13:54;;;;;;;;;0.00;0.00;;;;;5.93;85.04;98794.16;4964149;28;45883;-60
2021/12/10 00:16:19;;;;;;;;;0.00;0.00;;;;;5.96;85.46;98793.09;4987357;28;45567;-61
2021/12/10 00:18:53;;;;;;;;;0.00;0.00;;;;;5.94;85.75;98773.88;4983063;28;45655;-61
2021/12/10 00:21:21;;;;;;;;;1.50;1.00;;;;;5.95;86.73;98768.50;4971465;28;46119;-63
2021/12/10 00:23:50;;;;;;;;;0.00;0.00;;;;;5.91;84.97;98751.19;4962866;28;45360;-62
2021/12/10 00:26:16;;;;;;;;;1.00;1.00;;;;;5.91;84.47;98735.34;4989582;28;45483;-61
2021/12/10 00:28:41;;;;;;;;;1.00;1.00;;;;;5.87;85.02;98724.16;4963398;28;45400;-61
2021/12/10 00:31:43;;;;;;;;;0.00;0.00;;;;;5.93;85.79;98696.53;4992136;28;46271;-61
2021/12/10 00:34:33;;;;;;;;;1.00;1.00;;;;;5.91;84.73;98686.06;4994266;28;45479;-61
2021/12/10 00:37:11;;;;;;;;;0.50;0.50;;;;;5.90;83.69;98671.19;4984716;28;45325;-60
2021/12/10 00:39:41;;;;;;;;;0.00;0.00;;;;;5.91;83.91;98683.44;4994676;28;45367;-59
2021/12/10 00:42:12;;;;;;;;;2.00;0.00;;;;;5.88;84.22;98678.34;4990395;28;46259;-60
2021/12/10 00:44:37;;;;;;;;;0.00;0.00;;;;;5.86;83.41;98674.13;4993152;28;45473;-61
2021/12/10 00:47:03;;;;;;;;;2.00;1.00;;;;;5.84;84.10;98668.91;4975834;28;45509;-60
2021/12/10 00:49:29;;;;;;;;;1.00;0.00;;;;;5.94;83.49;98678.91;4984653;28;45654;-62
2021/12/10 00:51:55;;;;;;;;;0.00;0.00;;;;;5.91;83.69;98666.75;4990269;28;45422;-62
2021/12/10 00:54:21;;;;;;;;;0.50;0.00;;;;;5.87;83.70;98649.44;4993671;28;45414;-60
2021/12/10 00:56:47;;;;;;;;;1.00;1.00;;;;;5.86;82.78;98648.59;4975647;28;45350;-59
2021/12/10 00:59:13;;;;;;;;;0.00;0.00;;;;;5.86;82.79;98637.19;4970889;28;45616;-61
2021/12/10 01:01:41;;;;;;;;;0.00;0.00;;;;;5.83;84.04;98627.66;4990637;28;45177;-60
2021/12/10 01:04:20;;;;;;;;;0.00;0.00;;;;;5.85;83.72;98619.66;4978282;28;45273;-59
2021/12/10 01:06:49;;;;;;;;;0.00;0.00;;;;;5.81;84.47;98592.63;4959425;28;45682;-62
2021/12/10 01:09:19;;;;;;;;;0.75;0.00;;;;;5.78;84.44;98597.28;4966714;28;45518;-60
2021/12/10 01:11:50;;;;;;;;;0.00;0.00;;;;;5.75;83.81;98582.53;4974273;28;46279;-61
2021/12/10 01:14:29;;;;;;;;;0.00;0.00;;;;;5.81;83.62;98581.25;4985576;28;45220;-62
2021/12/10 01:25:25;;;;;;;;;0.00;0.00;;;;;5.74;83.58;98570.28;4981038;28;45399;-61
2021/12/10 01:27:51;;;;;;;;;0.25;0.25;;;;;5.71;85.38;98559.94;4994869;28;45267;-63
2021/12/10 01:30:31;;;;;;;;;0.00;0.00;;;;;5.73;100.00;98563.31;4972909;28;45525;-60
2021/12/10 01:33:10;;;;;;;;;0.00;0.00;;;;;5.73;100.00;98547.50;4977350;28;46232;-59
2021/12/10 01:35:40;;;;;;;;;0.00;0.00;;;;;5.74;89.20;98543.91;4994041;28;45181;-61
2021/12/10 01:38:08;;;;;;;;;0.00;0.00;;;;;5.73;86.78;98522.88;4991724;28;45575;-61
2021/12/10 01:40:35;;;;;;;;;0.00;0.00;;;;;5.72;85.95;98524.69;4974687;28;45280;-60
2021/12/10 01:43:08;;;;;;;;;0.00;0.00;;;;;5.66;85.89;98517.22;4975269;28;46286;-60
2021/12/10 01:45:45;;;;;;;;;0.00;0.00;;;;;5.74;85.67;98520.19;4991601;28;45516;-59
2021/12/10 01:48:14;;;;;;;;;1.00;1.00;;;;;5.72;85.62;98516.78;4993233;28;45466;-61
2021/12/10 01:50:40;;;;;;;;;0.00;0.00;;;;;5.70;86.08;98504.66;4987029;28;45505;-60
2021/12/10 01:53:14;;;;;;;;;0.00;0.00;;;;;5.71;86.01;98501.91;4976921;28;45663;-61
2021/12/10 01:55:42;;;;;;;;;0.00;0.00;;;;;5.75;85.10;98497.28;4977317;28;45444;-60
2021/12/10 01:58:10;;;;;;;;;0.00;0.00;;;;;5.74;85.79;98483.25;4975259;28;45411;-61
2021/12/10 02:00:42;;;;;;;;;0.00;0.00;;;;;5.70;86.24;98468.56;4963784;28;45517;-61
2021/12/10 02:03:08;;;;;;;;;0.00;0.00;;;;;5.70;84.96;98479.13;4992506;28;46237;-60
2021/12/10 02:05:35;;;;;;;;;2.00;0.00;;;;;5.71;85.58;98474.69;4991694;28;45219;-62
2021/12/10 02:08:00;;;;;;;;;1.00;0.00;;;;;5.69;84.77;98476.59;4986112;28;45289;-63
2021/12/10 02:10:28;;;;;;;;;0.00;0.00;;;;;5.70;85.71;98463.28;4992190;28;45198;-61
2021/12/10 02:12:54;;;;;;;;;1.00;0.00;;;;;5.70;84.81;98471.22;4993318;28;45425;-60
2021/12/10 02:15:22;;;;;;;;;0.00;0.00;;;;;5.66;84.71;98446.00;4964961;28;46314;-60
2021/12/10 02:17:50;;;;;;;;;1.25;0.00;;;;;5.65;85.25;98439.06;4965603;28;45487;-60
2021/12/10 02:20:22;;;;;;;;;0.00;0.00;;;;;5.74;85.37;98446.34;4978726;28;45570;-59
2021/12/10 02:22:49;;;;;;;;;0.00;0.00;;;;;5.73;84.59;98433.22;4958529;28;47376;-62
2021/12/10 02:25:18;;;;;;;;;0.00;0.00;;;;;5.76;85.45;98431.22;4990218;28;45483;-63
2021/12/10 02:27:44;;;;;;;;;1.00;0.00;;;;;5.76;84.78;98430.41;4978251;28;45471;-62
2021/12/10 02:30:13;;;;;;;;;0.00;0.00;;;;;5.74;85.98;98427.03;4988380;28;45560;-60
2021/12/10 02:32:39;;;;;;;;;0.00;0.00;;;;;5.71;84.76;98430.69;4984991;28;47084;-64
2021/12/10 02:35:07;;;;;;;;;0.00;0.00;;;;;5.75;85.49;98434.81;4969146;28;45280;-60
2021/12/10 02:37:33;;;;;;;;;0.00;0.00;;;;;5.76;85.47;98420.69;4978144;28;45285;-63
2021/12/10 02:39:59;;;;;;;;;0.00;0.00;;;;;5.86;85.51;98423.53;4982494;28;45582;-62
2021/12/10 02:42:24;;;;;;;;;0.00;0.00;;;;;5.85;85.51;98411.25;4958626;28;46259;-60
2021/12/10 02:44:50;;;;;;;;;0.00;0.00;;;;;5.93;86.48;98410.75;4995251;28;45328;-62
2021/12/10 02:47:16;;;;;;;;;0.00;0.00;;;;;5.95;84.89;98416.75;4995422;28;45271;-62
2021/12/10 02:49:42;;;;;;;;;0.00;0.00;;;;;5.90;86.51;98399.47;4980704;28;45600;-61
2021/12/10 02:52:10;;;;;;;;;0.00;0.00;;;;;5.96;86.44;98399.97;4976294;28;45412;-63
2021/12/10 02:54:36;;;;;;;;;0.50;0.00;;;;;6.00;85.70;98398.81;4988002;28;45463;-62
2021/12/10 02:57:09;;;;;;;;;0.00;0.00;;;;;6.01;85.22;98387.31;4995370;28;45326;-60
2021/12/10 02:59:36;;;;;;;;;0.00;0.00;;;;;6.04;85.71;98390.56;4984852;28;45425;-62
2021/12/10 03:02:04;;;;;;;;;0.00;0.00;;;;;6.02;85.32;98383.72;4975646;28;45791;-64
2021/12/10 03:04:31;;;;;;;;;0.50;0.00;;;;;6.09;86.07;98395.50;4977830;28;45448;-63
2021/12/10 03:06:59;;;;;;;;;0.00;0.00;;;;;6.09;85.30;98384.94;4970228;28;45497;-63
2021/12/10 03:09:26;;;;;;;;;0.00;0.00;;;;;6.14;85.32;98404.78;4995840;28;45406;-63
2021/12/10 03:11:56;;;;;;;;;0.00;0.00;;;;;6.14;86.18;98396.03;4995767;28;45334;-61
2021/12/10 03:14:25;;;;;;;;;0.00;0.00;;;;;6.20;85.82;98377.91;4989043;28;45470;-63
2021/12/10 03:16:54;;;;;;;;;0.00;0.00;;;;;6.21;87.11;98382.25;4992303;28;45466;-62
2021/12/10 03:19:20;;;;;;;;;0.00;0.00;;;;;6.22;86.14;98391.00;4985650;28;45485;-65
2021/12/10 03:21:47;;;;;;;;;0.25;0.00;;;;;6.27;86.09;98399.44;4977097;28;47960;-65
2021/12/10 03:24:16;;;;;;;;;0.00;0.00;;;;;6.26;86.64;98395.13;4995363;28;45334;-62
2021/12/10 03:26:41;;;;;;;;;1.00;0.00;;;;;6.34;87.39;98395.38;4977195;28;45320;-63
2021/12/10 03:29:07;;;;;;;;;1.75;0.00;;;;;6.36;86.44;98384.72;4983220;28;45512;-63
2021/12/10 03:31:34;;;;;;;;;0.00;0.00;;;;;6.45;87.00;98386.69;4983570;28;46366;-61
2021/12/10 03:34:00;;;;;;;;;1.00;0.00;;;;;6.48;86.97;98397.84;4986214;28;45453;-61
2021/12/10 03:36:26;;;;;;;;;1.75;0.00;;;;;6.55;86.41;98407.97;4980367;28;45373;-61
2021/12/10 03:38:53;;;;;;;;;0.00;0.00;;;;;6.61;86.98;98404.84;4976992;28;45583;-61
2021/12/10 03:41:19;;;;;;;;;0.00;0.00;;;;;6.63;87.31;98390.56;4958418;28;46424;-59
2021/12/10 03:43:46;;;;;;;;;0.00;0.00;;;;;6.66;86.60;98393.00;4984182;28;45387;-62
2021/12/10 03:46:13;;;;;;;;;0.00;0.00;;;;;6.76;87.35;98407.19;4989606;28;45283;-61
2021/12/10 03:48:41;;;;;;;;;0.00;0.00;;;;;6.84;87.42;98397.84;4989712;28;45530;-63
2021/12/10 03:51:11;;;;;;;;;0.00;0.00;;;;;6.86;87.43;98390.66;4994999;28;45967;-61
2021/12/10 03:53:37;;;;;;;;;1.00;0.00;;;;;6.95;87.37;98396.09;4992895;28;45357;-60
2021/12/10 03:56:07;;;;;;;;;0.00;0.00;;;;;6.97;87.51;98403.88;4977701;28;45246;-63
2021/12/10 03:58:32;;;;;;;;;0.00;0.00;;;;;7.04;87.23;98397.19;4982405;28;45322;-59
2021/12/10 04:00:59;;;;;;;;;0.00;0.00;;;;;7.04;87.68;98390.09;4981493;28;45457;-60
2021/12/10 04:03:27;;;;;;;;;1.50;0.00;;;;;7.15;86.82;98401.63;4992677;28;45582;-60
2021/12/10 04:05:54;;;;;;;;;1.00;1.00;;;;;7.15;86.99;98391.91;4993070;27;45402;-58
2021/12/10 04:08:20;;;;;;;;;0.00;0.00;;;;;7.26;87.01;98399.00;4995321;28;45437;-59
2021/12/10 04:10:46;;;;;;;;;2.00;0.00;;;;;7.31;87.24;98404.81;4982315;28;45420;-61
2021/12/10 04:13:12;;;;;;;;;1.00;1.00;;;;;7.35;86.99;98408.88;4984510;28;45233;-60
2021/12/10 04:15:39;;;;;;;;;2.00;0.00;;;;;7.26;86.97;98383.16;4994841;28;45441;-59
2021/12/10 04:18:07;;;;;;;;;0.00;0.00;;;;;7.41;86.81;98395.16;4990233;28;45574;-59
2021/12/10 04:20:33;;;;;;;;;2.00;1.00;;;;;7.46;86.72;98393.03;4988118;28;46254;-59
2021/12/10 04:23:03;;;;;;;;;2.00;1.00;;;;;7.43;86.62;98397.72;4981597;28;45324;-59
2021/12/10 04:25:29;;;;;;;;;2.25;0.50;;;;;7.56;86.62;98409.88;4972158;28;45549;-60
2021/12/10 04:27:58;;;;;;;;;2.00;1.00;;;;;7.61;86.52;98406.84;4994803;28;45244;-60
2021/12/10 04:30:24;;;;;;;;;0.75;0.75;;;;;7.60;86.26;98395.41;4986978;28;47548;-59
2021/12/10 04:32:51;;;;;;;;;1.00;1.00;;;;;7.69;86.12;98401.81;4963619;28;45490;-58
2021/12/10 04:35:18;;;;;;;;;0.50;0.50;;;;;7.74;86.08;98404.06;4974913;28;45461;-60
2021/12/10 04:37:45;;;;;;;;;1.00;1.00;;;;;7.76;85.82;98402.16;4970240;28;45563;-61
2021/12/10 04:40:12;;;;;;;;;1.00;1.00;;;;;7.80;85.25;98395.63;4963982;28;47522;-59
2021/12/10 04:42:39;;;;;;;;;0.75;0.75;;;;;7.84;85.49;98408.53;4956864;28;45441;-59
2021/12/10 04:45:06;;;;;;;;;4.25;2.00;;;;;7.86;84.55;98403.94;4975080;28;45394;-59
2021/12/10 04:47:33;;;;;;;;;1.00;1.00;;;;;7.91;85.01;98415.00;4974842;28;45480;-60
2021/12/10 04:49:59;;;;;;;;;1.25;0.00;;;;;7.90;84.75;98409.81;4984873;28;45519;-59
2021/12/10 04:52:25;;;;;;;;;1.00;1.00;;;;;7.95;85.02;98412.97;4966775;28;45302;-59
2021/12/10 04:54:51;;;;;;;;;1.00;1.00;;;;;8.01;85.11;98417.75;4977934;28;45490;-61
2021/12/10 04:57:19;;;;;;;;;2.00;2.00;;;;;8.05;83.63;98415.69;4983664;28;45262;-63
2021/12/10 04:59:45;;;;;;;;;3.25;2.00;;;;;8.11;84.39;98417.88;4980462;28;47014;-61
2021/12/10 05:02:13;;;;;;;;;2.75;1.00;;;;;8.14;83.66;98428.19;4988051;28;45411;-59
2021/12/10 05:04:40;;;;;;;;;2.50;2.50;;;;;8.18;83.88;98419.88;4983801;28;45403;-60
2021/12/10 05:07:06;;;;;;;;;5.25;2.00;;;;;8.19;83.10;98416.25;4957577;28;45375;-59
2021/12/10 05:09:33;;;;;;;;;4.75;2.50;;;;;8.24;83.80;98426.50;4974312;28;45188;-59
2021/12/10 05:12:01;;;;;;;;;1.50;1.50;;;;;8.25;83.09;98426.38;4989683;28;45879;-60
2021/12/10 05:14:28;;;;;;;;;4.75;2.00;;;;;8.25;82.52;98421.06;4988603;28;45390;-61
2021/12/10 05:16:58;;;;;;;;;5.25;2.00;;;;;8.30;81.54;98444.53;4975360;28;45266;-59
2021/12/10 05:19:27;;;;;;;;;5.75;3.25;;;;;8.31;82.00;98429.47;4992231;28;46930;-59
2021/12/10 05:21:53;;;;;;;;;5.50;2.00;;;;;8.32;82.20;98444.41;4987145;28;46552;-59
2021/12/10 05:24:19;;;;;;;;;1.00;1.00;;;;;8.32;82.50;98447.03;4977354;28;45458;-61
2021/12/10 05:26:45;;;;;;;;;1.00;1.00;;;;;8.34;82.00;98455.72;4973469;28;45468;-60
2021/12/10 05:29:11;;;;;;;;;2.00;2.00;;;;;8.34;81.35;98474.28;4958439;28;46714;-60
2021/12/10 05:31:39;;;;;;;;;1.50;1.00;;;;;8.34;81.54;98471.63;4976957;28;45427;-60
2021/12/10 05:34:06;;;;;;;;;5.50;2.00;;;;;8.33;81.34;98472.56;4978809;28;45495;-59
2021/12/10 05:36:32;;;;;;;;;1.25;1.25;;;;;8.36;81.19;98477.66;4978251;28;45544;-60
2021/12/10 05:38:59;;;;;;;;;1.50;1.00;;;;;8.41;81.17;98488.72;4980535;28;46397;-60
2021/12/10 05:41:24;;;;;;;;;1.75;1.75;;;;;8.40;80.14;98489.69;4974156;28;45376;-60
2021/12/10 05:43:50;;;;;;;;;1.75;1.00;;;;;8.40;80.39;98497.63;4968506;28;45385;-60
2021/12/10 05:46:17;;;;;;;;;1.25;1.00;;;;;8.31;79.20;98487.75;4990394;28;45297;-60
2021/12/10 05:48:43;;;;;;;;;1.50;0.50;;;;;8.37;80.51;98495.25;4992904;28;45238;-60
2021/12/10 05:51:10;;;;;;;;;3.75;1.50;;;;;8.36;80.37;98506.81;4988357;28;45399;-59
2021/12/10 05:53:35;;;;;;;;;0.75;0.75;;;;;8.34;80.28;98506.06;4974344;28;45812;-62
2021/12/10 05:56:01;;;;;;;;;6.00;2.00;;;;;8.37;80.51;98508.47;4975406;28;45495;-62
2021/12/10 05:58:27;;;;;;;;;4.75;1.00;;;;;8.37;80.17;98514.63;4974160;28;46722;-60
2021/12/10 06:01:02;;;;;;;;;0.00;0.00;;;;;8.34;80.69;98511.34;4981691;28;45360;-61
2021/12/10 06:03:28;;;;;;;;;2.00;1.00;;;;;8.38;80.79;98518.94;4966018;28;45694;-61
2021/12/10 06:05:54;;;;;;;;;5.00;1.00;;;;;8.36;81.23;98522.69;4981283;28;45531;-63
2021/12/10 06:08:21;;;;;;;;;1.50;1.50;;;;;8.39;81.12;98530.38;4991241;28;46301;-61
2021/12/10 06:10:48;;;;;;;;;3.25;1.00;;;;;8.33;80.40;98507.00;4982916;28;45584;-62
2021/12/10 06:13:14;;;;;;;;;3.25;2.00;;;;;8.37;79.65;98534.97;4979217;28;45341;-60
2021/12/10 06:15:39;;;;;;;;;2.50;1.00;;;;;8.37;79.90;98556.16;4977633;28;45489;-59
2021/12/10 06:18:06;;;;;;;;;0.00;0.00;;;;;8.32;79.86;98537.09;4984472;28;45849;-60
2021/12/10 06:20:35;;;;;;;;;1.00;0.00;;;;;8.35;79.35;98547.50;4976426;28;45382;-61
2021/12/10 06:23:01;;;;;;;;;0.75;0.75;;;;;8.32;80.32;98558.28;4979446;28;45454;-60
2021/12/10 06:25:28;;;;;;;;;0.50;0.50;;;;;8.31;80.00;98552.13;4978725;28;45382;-59
2021/12/10 06:27:54;;;;;;;;;1.25;1.00;;;;;8.29;80.63;98544.31;4989932;28;46013;-60
2021/12/10 06:30:23;;;;;;;;;5.00;1.00;;;;;8.31;79.35;98561.88;4990681;28;45386;-60
2021/12/10 06:32:50;;;;;;;;;0.50;0.50;;;;;8.33;80.27;98575.84;4974965;28;45310;-59
2021/12/10 06:35:17;;;;;;;;;1.00;1.00;;;;;8.29;80.02;98559.38;4993030;28;45675;-60
2021/12/10 06:37:44;;;;;;;;;1.00;1.00;;;;;8.28;80.18;98569.13;4966265;28;46689;-60
2021/12/10 06:40:13;;;;;;;;;4.75;1.25;;;;;8.24;79.33;98583.56;4983861;28;45463;-58
2021/12/10 06:42:39;;;;;;;;;2.50;1.25;;;;;8.26;79.89;98589.59;4993856;28;45961;-59
2021/12/10 06:45:08;;;;;;;;;1.75;1.75;;;;;8.27;80.45;98583.31;4993116;28;45315;-60
2021/12/10 06:47:35;;;;;;;;;3.25;2.00;;;;;8.23;79.98;98578.41;4965287;28;45881;-60
2021/12/10 06:50:00;;;;;;;;;0.50;0.00;;;;;8.18;80.37;98599.94;4973981;28;45559;-64
2021/12/10 06:52:26;;;;;;;;;1.00;1.00;;;;;8.17;80.28;98603.53;4991580;28;45485;-57
2021/12/10 06:54:52;;;;;;;;;1.00;1.00;;;;;8.10;80.39;98612.94;4986184;28;45526;-59
2021/12/10 06:57:18;;;;;;;;;2.00;0.00;;;;;8.09;80.36;98637.72;4968142;28;47912;-61
2021/12/10 06:59:44;;;;;;;;;1.00;0.25;;;;;8.06;80.88;98635.28;4991290;28;46604;-62
2021/12/10 07:02:11;;;;;;;;;0.50;0.50;;;;;8.07;80.97;98649.38;4986851;28;45398;-63
2021/12/10 07:04:40;;;;;;;;;0.00;0.00;;;;;8.01;80.94;98641.91;4979029;28;45452;-61
2021/12/10 07:07:10;;;;;;;;;2.25;0.25;;;;;7.94;79.51;98660.06;4990940;28;45614;-58
2021/12/10 07:09:36;;;;;;;;;1.75;1.00;;;;;7.95;80.37;98675.84;4994274;28;45597;-61
2021/12/10 07:12:04;;;;;;;;;2.00;0.75;;;;;7.91;81.01;98686.75;4995641;28;45398;-59
2021/12/10 07:14:30;;;;;;;;;5.50;1.00;;;;;7.84;81.33;98688.19;4977505;28;45636;-61
2021/12/10 07:16:56;;;;;;;;;0.75;0.75;;;;;7.86;82.66;98694.22;4994398;28;46326;-63
2021/12/10 07:19:22;;;;;;;;;1.00;1.00;;;;;7.82;81.44;98688.31;4977346;28;45505;-61
2021/12/10 07:21:48;;;;;;;;;1.25;1.00;;;;;7.79;81.26;98699.09;4995546;28;45413;-61
2021/12/10 07:24:16;;;;;;;;;2.25;0.75;;;;;7.86;81.26;98683.63;4995572;28;45482;-60
2021/12/10 07:26:43;;;;;;;;;1.75;1.75;;;;;7.81;79.57;98718.38;4995237;28;45280;-60
2021/12/10 07:29:10;;;;;;;;;0.00;0.00;;;;;7.74;79.17;98713.66;4995018;28;45175;-59
2021/12/10 07:31:37;;;;;;;;;1.00;1.00;;;;;7.77;78.67;98726.66;4994851;28;45447;-59
2021/12/10 07:34:03;;;;;;;;;1.00;1.00;;;;;7.73;77.59;98735.78;4995398;28;45325;-57
2021/12/10 07:36:30;;;;;;;;;1.50;0.25;;;;;7.69;80.20;98735.16;4993743;28;45398;-58
2021/12/10 07:38:58;;;;;;;;;0.00;0.00;;;;;7.69;78.44;98733.38;4995133;28;45355;-58
2021/12/10 07:41:25;;;;;;;;;1.00;1.00;;;;;7.59;78.25;98745.56;4994116;28;45315;-59
2021/12/10 07:43:51;;;;;;;;;2.50;0.25;;;;;7.47;78.21;98733.25;4995259;28;45397;-59
2021/12/10 07:46:17;;;;;;;;;0.00;0.00;;;;;7.60;77.90;98768.41;4960937;28;48395;-59
2021/12/10 07:48:44;;;;;;;;;2.00;0.00;;;;;7.47;77.63;98778.19;4994535;28;45364;-59
2021/12/10 07:51:15;;;;;;;;;1.00;0.00;;;;;7.48;77.36;98764.03;4995238;28;45366;-60
2021/12/10 07:53:41;;;;;;;;;0.00;0.00;;;;;7.33;75.34;98758.03;4995185;28;45480;-59
2021/12/10 07:56:09;;;;;;;;;0.00;0.00;;;;;7.45;76.88;98796.00;4994527;28;45646;-61
2021/12/10 07:58:37;;;;;;;;;3.75;1.00;;;;;7.47;76.61;98786.13;4994684;28;45405;-61
2021/12/10 08:01:08;;;;;;;;;0.00;0.00;;;;;7.52;76.56;98794.56;4994891;28;45404;-59
2021/12/10 08:03:33;;;;;;;;;0.00;0.00;;;;;7.51;75.94;98789.41;4994502;28;45447;-59
2021/12/10 08:05:59;;;;;;;;;1.50;0.25;;;;;7.53;75.42;98814.78;4976633;28;46252;-59
2021/12/10 08:08:24;;;;;;;;;1.00;0.00;;;;;7.47;75.90;98809.94;4976999;28;45354;-60
2021/12/10 08:10:50;;;;;;;;;1.50;1.50;;;;;7.50;75.74;98806.22;4994340;28;45297;-62
2021/12/10 08:13:21;;;;;;;;;1.00;0.00;;;;;7.52;74.59;98821.03;4994923;28;45537;-65
2021/12/10 08:15:47;;;;;;;;;1.00;1.00;;;;;7.50;75.72;98815.00;4972695;28;46924;-61
2021/12/10 08:18:13;;;;;;;;;1.00;1.00;;;;;7.52;74.65;98834.25;4986819;28;45414;-61
2021/12/10 08:20:38;;;;;;;;;0.00;0.00;;;;;7.46;75.28;98828.56;4995885;28;45436;-60
2021/12/10 08:23:04;;;;;;;;;1.00;1.00;;;;;7.52;75.04;98857.22;4985738;28;45457;-61
2021/12/10 08:25:30;;;;;;;;;0.50;0.50;;;;;7.53;74.91;98862.38;4990451;28;46024;-61
2021/12/10 08:27:56;;;;;;;;;0.75;0.00;;;;;7.50;74.35;98865.25;4994317;28;45494;-62
2021/12/10 08:30:25;;;;;;;;;2.00;0.00;;;;;7.54;74.81;98873.81;4993932;28;45243;-61
2021/12/10 08:32:54;;;;;;;;;0.00;0.00;;;;;7.49;74.42;98884.72;4981020;28;45619;-59
2021/12/10 08:35:23;;;;;;;;;0.00;0.00;;;;;7.49;74.02;98889.19;4970802;28;46388;-59
2021/12/10 08:37:51;;;;;;;;;2.50;1.00;;;;;7.51;73.50;98890.75;4957202;28;45261;-61
2021/12/10 08:40:25;;;;;;;;;0.00;0.00;;;;;7.46;72.52;98886.75;4993835;28;45462;-60
2021/12/10 08:42:53;;;;;;;;;1.50;0.50;;;;;7.51;73.61;98908.44;4976136;28;45413;-60
2021/12/10 08:45:23;;;;;;;;;1.00;0.00;;;;;7.50;73.65;98910.22;4979435;28;46264;-61
2021/12/10 08:47:50;;;;;;;;;2.00;0.00;;;;;7.45;73.14;98895.66;4988140;28;45198;-59
2021/12/10 08:50:22;;;;;;;;;4.00;0.00;;;;;7.50;73.21;98914.69;4979795;28;45363;-60
2021/12/10 08:52:49;;;;;;;;;0.00;0.00;;;;;7.51;72.64;98927.78;4991757;28;45374;-60
2021/12/10 08:55:17;;;;;;;;;0.00;0.00;;;;;7.46;73.01;98911.41;4982403;28;45848;-60
2021/12/10 08:57:44;;;;;;;;;0.00;0.00;;;;;7.47;73.64;98918.38;4985518;28;45349;-63
2021/12/10 09:00:10;;;;;;;;;0.00;0.00;;;;;7.49;72.83;98939.44;4974442;28;45379;-61
2021/12/10 09:02:37;;;;;;;;;4.25;1.00;;;;;7.41;72.49;98939.94;4986685;28;45250;-60
2021/12/10 09:05:07;;;;;;;;;1.75;0.00;;;;;7.33;72.50;98935.22;4987322;28;45972;-61
2021/12/10 09:07:33;;;;;;;;;0.25;0.25;;;;;7.33;73.29;98934.38;4979051;28;45506;-60
2021/12/10 09:09:58;;;;;;;;;0.50;0.50;;;;;7.35;72.83;98943.03;4990767;28;45407;-61
2021/12/10 09:12:26;;;;;;;;;0.00;0.00;;;;;7.39;73.69;98955.94;4974548;28;45612;-61
2021/12/10 09:14:56;;;;;;;;;0.00;0.00;;;;;7.38;73.65;98969.28;4995530;27;45359;-60
2021/12/10 09:17:26;;;;;;;;;0.00;0.00;;;;;7.42;73.77;98964.59;4982579;28;45534;-60
2021/12/10 09:19:55;;;;;;;;;5.25;1.00;;;;;7.39;72.95;98965.66;4993412;28;45262;-61
2021/12/10 09:22:23;;;;;;;;;4.00;2.00;;;;;7.47;73.81;98979.22;4989543;28;45503;-60
2021/12/10 09:24:49;;;;;;;;;0.00;0.00;;;;;7.53;73.68;98977.94;4956373;28;47812;-60
2021/12/10 09:27:15;;;;;;;;;1.75;0.00;;;;;7.55;74.20;98982.19;4973795;28;45336;-61
2021/12/10 09:29:46;;;;;;;;;34.75;27.75;;;;;7.57;74.93;98993.50;4979102;28;45393;-60
2021/12/10 09:32:15;;;;;;;;;0.75;0.75;;;;;7.58;74.44;98995.22;4981304;28;45362;-60
2021/12/10 09:34:41;;;;;;;;;2.50;2.00;;;;;7.59;74.35;98996.06;4979728;28;46438;-61
2021/12/10 09:37:09;;;;;;;;;1.00;1.00;;;;;7.57;72.80;99001.44;4984090;28;45226;-60
2021/12/10 09:39:35;;;;;;;;;5.25;1.25;;;;;7.58;74.69;99005.78;4979971;28;45445;-61
2021/12/10 09:42:03;;;;;;;;;0.50;0.50;;;;;7.55;73.96;99011.28;4990810;28;45460;-62
2021/12/10 09:44:29;;;;;;;;;5.00;2.00;;;;;7.62;74.50;99019.66;4990332;28;47445;-61
2021/12/10 09:46:55;;;;;;;;;1.50;1.50;;;;;7.66;74.07;99032.53;4978404;28;45728;-62
2021/12/10 09:49:24;;;;;;;;;2.25;2.25;;;;;7.64;73.62;99025.66;5060988;28;45363;-63
2021/12/10 09:51:54;;;;;;;;;5.00;1.00;;;;;7.65;73.91;99014.97;4993132;27;45622;-61
2021/12/10 09:54:23;;;;;;;;;3.75;1.00;;;;;7.77;73.32;99034.44;4993080;28;45706;-61
2021/12/10 09:56:56;;;;;;;;;6.00;1.50;;;;;7.87;73.10;99050.56;5032613;28;45379;-60
2021/12/10 09:59:22;;;;;;;;;1.00;1.00;;;;;7.93;72.29;99050.97;4956407;28;45395;-61
2021/12/10 10:01:54;;;;;;;;;2.00;2.00;;;;;7.94;72.13;99051.81;4973719;28;45228;-61
2021/12/10 10:04:23;;;;;;;;;3.50;1.00;;;;;7.96;71.94;99036.69;4981344;28;46400;-60
2021/12/10 10:06:53;;;;;;;;;1.00;1.00;;;;;8.06;70.97;99050.94;4993251;28;45380;-62
2021/12/10 10:09:21;;;;;;;;;3.00;1.00;;;;;8.06;71.34;99055.41;4993189;28;45421;-60
2021/12/10 10:11:53;;;;;;;;;1.50;1.00;;;;;7.92;71.35;99059.84;4970582;28;45459;-62
2021/12/10 10:14:19;;;;;;;;;2.00;2.00;;;;;7.96;72.01;99073.75;4992662;28;46466;-60
2021/12/10 10:16:45;;;;;;;;;1.00;1.00;;;;;7.89;69.36;99086.53;4981283;28;46031;-61
2021/12/10 10:19:13;;;;;;;;;2.00;0.00;;;;;7.75;68.11;99086.66;4990017;28;45928;-61
2021/12/10 10:21:43;;;;;;;;;1.50;1.00;;;;;7.63;69.42;99084.84;4978963;28;46173;-60
2021/12/10 10:24:11;;;;;;;;;2.00;1.00;;;;;7.62;70.09;99091.94;4975041;28;46231;-61
2021/12/10 10:26:41;;;;;;;;;0.00;0.00;;;;;7.63;70.30;99096.25;4992888;28;45382;-60
2021/12/10 10:29:14;;;;;;;;;1.00;1.00;;;;;7.69;70.05;99102.97;4975413;28;45494;-60
2021/12/10 10:31:49;;;;;;;;;4.00;1.75;;;;;7.75;70.68;99099.03;4992084;28;45621;-60
2021/12/10 10:34:15;;;;;;;;;1.50;1.50;;;;;7.85;70.55;99110.69;4989248;28;45255;-61
2021/12/10 10:36:41;;;;;;;;;3.50;1.00;;;;;7.89;70.31;99106.88;4981768;28;45496;-61
2021/12/10 10:39:19;;;;;;;;;3.00;1.75;;;;;7.90;70.48;99103.28;5023878;28;45365;-59
2021/12/10 10:41:48;;;;;;;;;2.00;2.00;;;;;7.91;68.90;99099.66;4976011;28;45457;-60
2021/12/10 10:44:17;;;;;;;;;3.00;0.75;;;;;8.08;68.97;99117.91;4981748;28;45370;-60
2021/12/10 10:46:43;;;;;;;;;4.00;3.50;;;;;8.20;68.16;99095.00;4993021;28;45446;-60
2021/12/10 10:49:09;;;;;;;;;2.25;1.00;;;;;8.24;66.85;99115.88;4989094;28;45681;-62
2021/12/10 10:51:41;;;;;;;;;2.00;2.00;;;;;8.28;66.47;99122.66;4986718;28;45883;-61
2021/12/10 10:54:11;;;;;;;;;6.25;5.00;;;;;8.20;65.17;99122.34;5043341;28;47582;-61
2021/12/10 10:56:45;;;;;;;;;6.00;1.00;;;;;8.24;65.28;99131.78;4994399;28;45344;-61
2021/12/10 10:59:15;;;;;;;;;3.25;1.75;;;;;8.36;66.30;99127.44;4983877;28;45490;-61
2021/12/10 11:01:58;;;;;;;;;1.75;1.75;;;;;8.40;63.92;99126.28;4983725;28;45445;-63
2021/12/10 11:04:28;;;;;;;;;1.00;1.00;;;;;8.47;64.26;99132.00;4994952;28;45426;-62
2021/12/10 11:07:02;;;;;;;;;3.50;2.00;;;;;8.43;64.04;99139.28;4983751;28;45340;-61
2021/12/10 11:09:30;;;;;;;;;1.00;0.75;;;;;8.50;64.40;99145.03;4992663;28;45298;-61
2021/12/10 11:12:07;;;;;;;;;8.25;1.50;;;;;8.33;61.88;99150.59;4979481;28;45636;-63
2021/12/10 11:14:46;;;;;;;;;7.25;1.25;;;;;8.28;63.39;99159.72;4995722;28;45364;-64
2021/12/10 11:17:25;;;;;;;;;3.00;1.00;;;;;8.31;62.37;99158.66;4990198;28;45480;-69
2021/12/10 11:19:53;;;;;;;;;5.75;1.00;;;;;8.42;62.68;99160.59;4965569;28;45314;-62
2021/12/10 11:22:22;;;;;;;;;3.00;1.00;;;;;8.47;63.48;99166.44;4984996;28;45644;-63
2021/12/10 11:24:58;;;;;;;;;2.50;2.50;;;;;8.54;63.41;99173.84;4977604;28;46098;-61
2021/12/10 11:27:34;;;;;;;;;3.00;2.00;;;;;8.63;62.41;99182.94;4977361;28;45461;-62
2021/12/10 11:30:03;;;;;;;;;5.00;1.00;;;;;8.60;61.88;99167.28;4977725;28;45433;-60
2021/12/10 11:32:34;;;;;;;;;3.25;1.00;;;;;8.60;60.43;99182.31;4995399;28;45408;-62
2021/12/10 11:35:31;;;;;;;;;1.00;1.00;;;;;8.62;61.93;99191.84;4995174;28;45421;-63
2021/12/10 11:38:01;;;;;;;;;1.75;1.25;;;;;8.62;62.30;99191.84;4986585;28;45449;-61
2021/12/10 11:40:42;;;;;;;;;1.00;1.00;;;;;8.58;62.12;99193.84;4976861;28;45428;-61
2021/12/10 11:43:31;;;;;;;;;3.00;1.00;;;;;8.57;60.74;99194.81;4978131;28;45295;-61
2021/12/10 11:46:15;;;;;;;;;5.75;3.25;;;;;8.56;60.41;99202.88;4994530;28;45260;-61
2021/12/10 11:48:43;;;;;;;;;1.50;1.50;;;;;8.65;60.90;99196.94;4977576;28;45348;-63
2021/12/10 11:51:16;;;;;;;;;1.25;0.50;;;;;8.68;59.87;99207.31;4995077;28;45484;-62
2021/12/10 11:53:46;;;;;;;;;0.50;0.25;;;;;8.58;58.80;99208.91;4989866;27;45527;-63
2021/12/10 11:56:20;;;;;;;;;3.00;2.00;;;;;8.55;59.66;99212.63;4992400;28;46116;-62